sensor_id;sensor_type;location;lat;lon;timestamp;pressure;altitude;pressure_sealevel;temperature;humidity
66945;BME280;53853;51.982;5.928;2022-07-29T00:01:15;101653.84;;;18.53;54.43
66945;BME280;53853;51.982;5.928;2022-07-29T00:03:47;101647.13;;;18.49;54.07
66945;BME280;53853;51.982;5.928;2022-07-29T00:06:17;101642.09;;;18.45;54.42
66945;BME280;53853;51.982;5.928;2022-07-29T00:08:47;101642.25;;;18.44;54.17
66945;BME280;53853;51.982;5.928;2022-07-29T00:11:17;101640.78;;;18.41;54.87
66945;BME280;53853;51.982;5.928;2022-07-29T00:13:47;101638.28;;;18.40;54.66
66945;BME280;53853;51.982;5.928;2022-07-29T00:16:17;101628.66;;;18.37;54.74
66945;BME280;53853;51.982;5.928;2022-07-29T00:18:49;101628.03;;;18.35;55.11
66945;BME280;53853;51.982;5.928;2022-07-29T00:21:19;101630.22;;;18.32;55.18
66945;BME280;53853;51.982;5.928;2022-07-29T00:23:49;101631.44;;;18.29;55.25
66945;BME280;53853;51.982;5.928;2022-07-29T00:26:19;101634.13;;;18.29;55.16
66945;BME280;53853;51.982;5.928;2022-07-29T00:28:49;101629.09;;;18.26;55.50
66945;BME280;53853;51.982;5.928;2022-07-29T00:31:18;101632.34;;;18.21;55.10
66945;BME280;53853;51.982;5.928;2022-07-29T00:33:51;101622.56;;;18.20;55.30
66945;BME280;53853;51.982;5.928;2022-07-29T00:36:21;101615.00;;;18.16;55.56
66945;BME280;53853;51.982;5.928;2022-07-29T00:38:48;101618.75;;;18.15;55.48
66945;BME280;53853;51.982;5.928;2022-07-29T00:41:19;101613.53;;;18.13;55.83
66945;BME280;53853;51.982;5.928;2022-07-29T00:43:49;101613.53;;;18.13;55.88
66945;BME280;53853;51.982;5.928;2022-07-29T00:46:19;101603.56;;;18.14;56.00
66945;BME280;53853;51.982;5.928;2022-07-29T00:48:51;101595.47;;;18.14;55.91
66945;BME280;53853;51.982;5.928;2022-07-29T00:51:21;101603.75;;;18.12;56.14
66945;BME280;53853;51.982;5.928;2022-07-29T00:53:51;101602.91;;;18.12;55.66
66945;BME280;53853;51.982;5.928;2022-07-29T00:56:21;101598.53;;;18.10;55.62
66945;BME280;53853;51.982;5.928;2022-07-29T00:58:51;101586.91;;;18.10;55.74
66945;BME280;53853;51.982;5.928;2022-07-29T01:01:21;101593.13;;;18.10;55.87
66945;BME280;53853;51.982;5.928;2022-07-29T01:03:54;101597.53;;;18.12;56.36
66945;BME280;53853;51.982;5.928;2022-07-29T01:06:24;101601.22;;;18.10;56.43
66945;BME280;53853;51.982;5.928;2022-07-29T01:08:54;101592.50;;;18.08;56.02
66945;BME280;53853;51.982;5.928;2022-07-29T01:11:25;101597.88;;;18.08;56.16
66945;BME280;53853;51.982;5.928;2022-07-29T01:13:57;101605.97;;;18.08;56.30
66945;BME280;53853;51.982;5.928;2022-07-29T01:16:32;101602.41;;;18.08;56.21
66945;BME280;53853;51.982;5.928;2022-07-29T01:19:12;101601.41;;;18.09;56.43
66945;BME280;53853;51.982;5.928;2022-07-29T01:21:53;101597.03;;;18.08;56.54
66945;BME280;53853;51.982;5.928;2022-07-29T01:24:34;101589.78;;;18.08;56.32
66945;BME280;53853;51.982;5.928;2022-07-29T01:27:18;101597.72;;;18.10;56.58
66945;BME280;53853;51.982;5.928;2022-07-29T01:29:56;101590.81;;;18.07;56.10
66945;BME280;53853;51.982;5.928;2022-07-29T01:32:29;101590.50;;;18.02;56.54
66945;BME280;53853;51.982;5.928;2022-07-29T01:35:04;101588.19;;;17.99;56.55
66945;BME280;53853;51.982;5.928;2022-07-29T01:37:39;101594.41;;;18.00;56.53
66945;BME280;53853;51.982;5.928;2022-07-29T01:40:18;101594.22;;;18.01;56.73
66945;BME280;53853;51.982;5.928;2022-07-29T01:42:51;101586.97;;;18.02;56.69
66945;BME280;53853;51.982;5.928;2022-07-29T01:45:28;101592.91;;;17.97;56.59
66945;BME280;53853;51.982;5.928;2022-07-29T01:48:04;101594.66;;;17.90;56.59
66945;BME280;53853;51.982;5.928;2022-07-29T01:50:40;101602.09;;;17.88;56.83
66945;BME280;53853;51.982;5.928;2022-07-29T01:53:18;101599.53;;;17.86;56.98
66945;BME280;53853;51.982;5.928;2022-07-29T01:55:52;101600.38;;;17.87;57.02
66945;BME280;53853;51.982;5.928;2022-07-29T01:58:23;101601.41;;;17.86;57.22
66945;BME280;53853;51.982;5.928;2022-07-29T02:00:58;101603.25;;;17.85;57.32
66945;BME280;53853;51.982;5.928;2022-07-29T02:03:30;101604.59;;;17.89;56.63
66945;BME280;53853;51.982;5.928;2022-07-29T02:06:02;101612.88;;;17.88;56.98
66945;BME280;53853;51.982;5.928;2022-07-29T02:08:34;101611.16;;;17.87;57.13
66945;BME280;53853;51.982;5.928;2022-07-29T02:11:07;101612.88;;;17.88;56.94
66945;BME280;53853;51.982;5.928;2022-07-29T02:13:38;101622.97;;;17.86;56.92
66945;BME280;53853;51.982;5.928;2022-07-29T02:16:14;101632.41;;;17.90;56.51
66945;BME280;53853;51.982;5.928;2022-07-29T02:18:46;101628.16;;;17.87;56.99
66945;BME280;53853;51.982;5.928;2022-07-29T02:21:21;101623.66;;;17.88;57.41
66945;BME280;53853;51.982;5.928;2022-07-29T02:23:53;101634.44;;;17.88;57.68
66945;BME280;53853;51.982;5.928;2022-07-29T02:26:25;101635.41;;;17.87;58.23
66945;BME280;53853;51.982;5.928;2022-07-29T02:28:56;101642.03;;;17.84;59.38
66945;BME280;53853;51.982;5.928;2022-07-29T02:31:32;101636.81;;;17.83;59.90
66945;BME280;53853;51.982;5.928;2022-07-29T02:34:05;101630.25;;;17.77;59.73
66945;BME280;53853;51.982;5.928;2022-07-29T02:36:37;101631.78;;;17.80;60.21
66945;BME280;53853;51.982;5.928;2022-07-29T02:39:08;101624.69;;;17.79;60.11
66945;BME280;53853;51.982;5.928;2022-07-29T02:41:43;101624.88;;;17.77;59.92
66945;BME280;53853;51.982;5.928;2022-07-29T02:44:15;101620.66;;;17.74;59.63
66945;BME280;53853;51.982;5.928;2022-07-29T02:46:51;101620.84;;;17.73;60.04
66945;BME280;53853;51.982;5.928;2022-07-29T02:49:31;101621.00;;;17.71;59.06
66945;BME280;53853;51.982;5.928;2022-07-29T02:52:06;101614.31;;;17.67;59.29
66945;BME280;53853;51.982;5.928;2022-07-29T02:54:42;101616.34;;;17.65;59.40
66945;BME280;53853;51.982;5.928;2022-07-29T02:57:18;101604.41;;;17.60;59.56
66945;BME280;53853;51.982;5.928;2022-07-29T02:59:51;101609.34;;;17.56;60.25
66945;BME280;53853;51.982;5.928;2022-07-29T03:02:25;101606.13;;;17.52;60.42
66945;BME280;53853;51.982;5.928;2022-07-29T03:04:58;101599.91;;;17.52;60.28
66945;BME280;53853;51.982;5.928;2022-07-29T03:07:29;101599.09;;;17.51;60.25
66945;BME280;53853;51.982;5.928;2022-07-29T03:09:59;101596.56;;;17.50;60.08
66945;BME280;53853;51.982;5.928;2022-07-29T03:12:30;101584.44;;;17.46;60.24
66945;BME280;53853;51.982;5.928;2022-07-29T03:15:01;101582.28;;;17.41;61.00
66945;BME280;53853;51.982;5.928;2022-07-29T03:17:34;101577.41;;;17.36;62.05
66945;BME280;53853;51.982;5.928;2022-07-29T03:20:06;101580.63;;;17.32;62.71
66945;BME280;53853;51.982;5.928;2022-07-29T03:22:39;101563.88;;;17.22;63.05
66945;BME280;53853;51.982;5.928;2022-07-29T03:25:14;101564.09;;;17.12;63.06
66945;BME280;53853;51.982;5.928;2022-07-29T03:27:46;101554.38;;;17.02;63.73
66945;BME280;53853;51.982;5.928;2022-07-29T03:30:16;101547.50;;;16.92;64.10
66945;BME280;53853;51.982;5.928;2022-07-29T03:32:49;101548.34;;;16.84;64.34
66945;BME280;53853;51.982;5.928;2022-07-29T03:35:19;101537.59;;;16.76;64.70
66945;BME280;53853;51.982;5.928;2022-07-29T03:37:49;101529.91;;;16.64;65.34
66945;BME280;53853;51.982;5.928;2022-07-29T03:40:23;101520.16;;;16.55;66.07
66945;BME280;53853;51.982;5.928;2022-07-29T03:42:56;101536.50;;;16.45;66.53
66945;BME280;53853;51.982;5.928;2022-07-29T03:45:27;101543.75;;;16.37;67.59
66945;BME280;53853;51.982;5.928;2022-07-29T03:48:03;101535.34;;;16.32;68.59
66945;BME280;53853;51.982;5.928;2022-07-29T03:50:35;101526.63;;;16.29;68.30
66945;BME280;53853;51.982;5.928;2022-07-29T03:53:06;101533.88;;;16.29;68.67
66945;BME280;53853;51.982;5.928;2022-07-29T03:55:41;101540.25;;;16.28;69.37
66945;BME280;53853;51.982;5.928;2022-07-29T03:58:13;101544.09;;;16.25;69.39
66945;BME280;53853;51.982;5.928;2022-07-29T04:00:44;101543.75;;;16.28;68.90
66945;BME280;53853;51.982;5.928;2022-07-29T04:03:17;101533.53;;;16.32;68.46
66945;BME280;53853;51.982;5.928;2022-07-29T04:05:58;101532.84;;;16.30;68.44
66945;BME280;53853;51.982;5.928;2022-07-29T04:08:28;101529.31;;;16.29;68.23
66945;BME280;53853;51.982;5.928;2022-07-29T04:10:58;101522.25;;;16.28;68.15
66945;BME280;53853;51.982;5.928;2022-07-29T04:13:29;101519.25;;;16.23;67.67
66945;BME280;53853;51.982;5.928;2022-07-29T04:15:59;101523.97;;;16.21;67.90
66945;BME280;53853;51.982;5.928;2022-07-29T04:18:32;101531.16;;;16.21;68.02
66945;BME280;53853;51.982;5.928;2022-07-29T04:21:01;101530.50;;;16.19;67.72
66945;BME280;53853;51.982;5.928;2022-07-29T04:23:32;101538.75;;;16.17;68.10
66945;BME280;53853;51.982;5.928;2022-07-29T04:26:01;101549.50;;;16.17;68.81
66945;BME280;53853;51.982;5.928;2022-07-29T04:28:31;101562.78;;;16.19;68.92
66945;BME280;53853;51.982;5.928;2022-07-29T04:31:01;101572.38;;;16.21;69.41
66945;BME280;53853;51.982;5.928;2022-07-29T04:33:33;101570.34;;;16.23;69.36
66945;BME280;53853;51.982;5.928;2022-07-29T04:36:04;101573.69;;;16.25;68.58
66945;BME280;53853;51.982;5.928;2022-07-29T04:38:34;101579.06;;;16.25;68.45
66945;BME280;53853;51.982;5.928;2022-07-29T04:41:04;101570.00;;;16.26;68.35
66945;BME280;53853;51.982;5.928;2022-07-29T04:43:35;101563.25;;;16.22;67.26
66945;BME280;53853;51.982;5.928;2022-07-29T04:46:07;101554.06;;;16.08;67.96
66945;BME280;53853;51.982;5.928;2022-07-29T04:48:39;101562.63;;;16.04;68.08
66945;BME280;53853;51.982;5.928;2022-07-29T04:51:09;101555.38;;;16.04;67.97
66945;BME280;53853;51.982;5.928;2022-07-29T04:53:39;101549.84;;;16.06;69.10
66945;BME280;53853;51.982;5.928;2022-07-29T04:56:09;101547.97;;;16.06;68.34
66945;BME280;53853;51.982;5.928;2022-07-29T04:58:38;101548.84;;;16.07;68.66
66945;BME280;53853;51.982;5.928;2022-07-29T05:01:08;101549.69;;;16.07;68.05
66945;BME280;53853;51.982;5.928;2022-07-29T05:03:41;101555.88;;;16.08;68.80
66945;BME280;53853;51.982;5.928;2022-07-29T05:06:11;101563.44;;;16.12;68.66
66945;BME280;53853;51.982;5.928;2022-07-29T05:08:41;101561.28;;;16.16;67.90
66945;BME280;53853;51.982;5.928;2022-07-29T05:11:11;101551.84;;;16.12;67.57
66945;BME280;53853;51.982;5.928;2022-07-29T05:13:41;101560.59;;;16.14;67.48
66945;BME280;53853;51.982;5.928;2022-07-29T05:16:11;101556.75;;;16.08;67.11
66945;BME280;53853;51.982;5.928;2022-07-29T05:18:44;101555.06;;;16.07;67.57
66945;BME280;53853;51.982;5.928;2022-07-29T05:21:14;101572.00;;;16.08;67.53
66945;BME280;53853;51.982;5.928;2022-07-29T05:23:43;101571.84;;;16.09;67.23
66945;BME280;53853;51.982;5.928;2022-07-29T05:26:13;101588.16;;;16.08;67.68
66945;BME280;53853;51.982;5.928;2022-07-29T05:28:43;101608.50;;;16.10;67.66
66945;BME280;53853;51.982;5.928;2022-07-29T05:31:13;101609.69;;;16.16;67.94
66945;BME280;53853;51.982;5.928;2022-07-29T05:33:45;101619.41;;;16.17;68.06
66945;BME280;53853;51.982;5.928;2022-07-29T05:36:15;101611.19;;;16.19;68.47
66945;BME280;53853;51.982;5.928;2022-07-29T05:38:45;101599.91;;;16.23;68.69
66945;BME280;53853;51.982;5.928;2022-07-29T05:41:15;101604.47;;;16.31;68.16
66945;BME280;53853;51.982;5.928;2022-07-29T05:43:45;101603.28;;;16.34;68.26
66945;BME280;53853;51.982;5.928;2022-07-29T05:46:15;101604.63;;;16.38;68.52
66945;BME280;53853;51.982;5.928;2022-07-29T05:48:48;101604.94;;;16.43;68.45
66945;BME280;53853;51.982;5.928;2022-07-29T05:51:18;101598.22;;;16.47;68.36
66945;BME280;53853;51.982;5.928;2022-07-29T05:53:48;101606.78;;;16.59;67.88
66945;BME280;53853;51.982;5.928;2022-07-29T05:56:18;101603.06;;;16.60;67.74
66945;BME280;53853;51.982;5.928;2022-07-29T05:58:48;101608.94;;;16.63;67.98
66945;BME280;53853;51.982;5.928;2022-07-29T06:01:18;101613.66;;;16.70;67.62
66945;BME280;53853;51.982;5.928;2022-07-29T06:03:50;101608.59;;;16.75;67.27
66945;BME280;53853;51.982;5.928;2022-07-29T06:06:20;101599.81;;;16.81;67.58
66945;BME280;53853;51.982;5.928;2022-07-29T06:08:50;101606.56;;;16.85;67.02
66945;BME280;53853;51.982;5.928;2022-07-29T06:11:20;101590.94;;;16.89;66.83
66945;BME280;53853;51.982;5.928;2022-07-29T06:13:49;101596.81;;;16.92;66.49
66945;BME280;53853;51.982;5.928;2022-07-29T06:16:19;101598.13;;;16.96;66.40
66945;BME280;53853;51.982;5.928;2022-07-29T06:18:52;101599.97;;;17.04;66.15
66945;BME280;53853;51.982;5.928;2022-07-29T06:21:22;101598.78;;;17.07;66.19
66945;BME280;53853;51.982;5.928;2022-07-29T06:23:51;101599.94;;;17.12;66.21
66945;BME280;53853;51.982;5.928;2022-07-29T06:26:21;101599.41;;;17.17;66.20
66945;BME280;53853;51.982;5.928;2022-07-29T06:28:51;101595.84;;;17.25;65.86
66945;BME280;53853;51.982;5.928;2022-07-29T06:31:21;101603.41;;;17.29;65.62
66945;BME280;53853;51.982;5.928;2022-07-29T06:33:53;101597.66;;;17.32;64.83
66945;BME280;53853;51.982;5.928;2022-07-29T06:36:23;101599.31;;;17.33;65.27
66945;BME280;53853;51.982;5.928;2022-07-29T06:38:53;101597.25;;;17.44;65.04
66945;BME280;53853;51.982;5.928;2022-07-29T06:41:23;101593.69;;;17.51;64.94
66945;BME280;53853;51.982;5.928;2022-07-29T06:43:53;101589.75;;;17.62;64.70
66945;BME280;53853;51.982;5.928;2022-07-29T06:46:23;101597.09;;;17.68;64.59
66945;BME280;53853;51.982;5.928;2022-07-29T06:48:55;101591.88;;;17.75;64.24
66945;BME280;53853;51.982;5.928;2022-07-29T06:51:25;101592.63;;;17.84;63.43
66945;BME280;53853;51.982;5.928;2022-07-29T06:53:55;101587.19;;;17.92;64.00
66945;BME280;53853;51.982;5.928;2022-07-29T06:56:25;101572.81;;;18.00;62.93
66945;BME280;53853;51.982;5.928;2022-07-29T06:58:55;101595.19;;;18.08;62.73
66945;BME280;53853;51.982;5.928;2022-07-29T07:01:25;101594.09;;;18.18;62.41
66945;BME280;53853;51.982;5.928;2022-07-29T07:03:57;101597.38;;;18.28;62.80
66945;BME280;53853;51.982;5.928;2022-07-29T07:06:27;101600.66;;;18.38;62.48
66945;BME280;53853;51.982;5.928;2022-07-29T07:08:57;101602.75;;;18.51;62.22
66945;BME280;53853;51.982;5.928;2022-07-29T07:11:27;101604.53;;;18.59;62.09
66945;BME280;53853;51.982;5.928;2022-07-29T07:13:57;101592.50;;;18.61;61.08
66945;BME280;53853;51.982;5.928;2022-07-29T07:16:27;101588.22;;;18.67;60.87
66945;BME280;53853;51.982;5.928;2022-07-29T07:19:00;101597.81;;;18.70;61.23
66945;BME280;53853;51.982;5.928;2022-07-29T07:21:30;101598.00;;;18.68;60.47
66945;BME280;53853;51.982;5.928;2022-07-29T07:24:00;101606.09;;;18.68;60.95
66945;BME280;53853;51.982;5.928;2022-07-29T07:26:30;101606.28;;;18.67;61.15
66945;BME280;53853;51.982;5.928;2022-07-29T07:29:00;101598.84;;;18.69;61.61
66945;BME280;53853;51.982;5.928;2022-07-29T07:31:30;101595.97;;;18.70;61.10
66945;BME280;53853;51.982;5.928;2022-07-29T07:34:02;101594.75;;;18.73;61.26
66945;BME280;53853;51.982;5.928;2022-07-29T07:36:32;101601.81;;;18.74;61.25
66945;BME280;53853;51.982;5.928;2022-07-29T07:39:02;101610.00;;;18.80;61.24
66945;BME280;53853;51.982;5.928;2022-07-29T07:41:32;101599.41;;;18.79;61.27
66945;BME280;53853;51.982;5.928;2022-07-29T07:44:02;101593.63;;;18.82;61.54
66945;BME280;53853;51.982;5.928;2022-07-29T07:46:32;101599.53;;;18.86;60.34
66945;BME280;53853;51.982;5.928;2022-07-29T07:49:05;101596.63;;;18.87;60.35
66945;BME280;53853;51.982;5.928;2022-07-29T07:51:35;101597.88;;;18.85;60.51
66945;BME280;53853;51.982;5.928;2022-07-29T07:54:05;101606.59;;;18.87;60.84
66945;BME280;53853;51.982;5.928;2022-07-29T07:56:35;101607.94;;;18.91;60.57
66945;BME280;53853;51.982;5.928;2022-07-29T07:59:05;101612.97;;;18.94;61.03
66945;BME280;53853;51.982;5.928;2022-07-29T08:01:34;101610.72;;;18.97;61.13
66945;BME280;53853;51.982;5.928;2022-07-29T08:04:07;101606.13;;;18.98;61.04
66945;BME280;53853;51.982;5.928;2022-07-29T08:06:37;101609.97;;;19.04;60.93
66945;BME280;53853;51.982;5.928;2022-07-29T08:09:07;101610.59;;;19.06;60.37
66945;BME280;53853;51.982;5.928;2022-07-29T08:11:37;101616.66;;;19.08;60.21
66945;BME280;53853;51.982;5.928;2022-07-29T08:14:07;101613.94;;;19.08;59.33
66945;BME280;53853;51.982;5.928;2022-07-29T08:16:37;101611.06;;;19.09;59.61
66945;BME280;53853;51.982;5.928;2022-07-29T08:19:09;101606.78;;;19.15;59.99
66945;BME280;53853;51.982;5.928;2022-07-29T08:21:39;101612.91;;;19.24;59.88
66945;BME280;53853;51.982;5.928;2022-07-29T08:24:09;101598.66;;;19.30;59.44
66945;BME280;53853;51.982;5.928;2022-07-29T08:26:52;101602.91;;;19.39;58.92
66945;BME280;53853;51.982;5.928;2022-07-29T08:29:22;101607.56;;;19.45;59.15
66945;BME280;53853;51.982;5.928;2022-07-29T08:31:51;101606.00;;;19.51;58.39
66945;BME280;53853;51.982;5.928;2022-07-29T08:34:24;101602.31;;;19.59;59.29
66945;BME280;53853;51.982;5.928;2022-07-29T08:36:55;101591.78;;;19.64;59.58
66945;BME280;53853;51.982;5.928;2022-07-29T08:39:25;101604.53;;;19.70;59.42
66945;BME280;53853;51.982;5.928;2022-07-29T08:41:55;101612.66;;;19.70;58.74
66945;BME280;53853;51.982;5.928;2022-07-29T08:44:25;101615.81;;;19.73;58.50
66945;BME280;53853;51.982;5.928;2022-07-29T08:46:55;101614.41;;;19.78;58.69
66945;BME280;53853;51.982;5.928;2022-07-29T08:49:27;101616.16;;;19.85;58.65
66945;BME280;53853;51.982;5.928;2022-07-29T08:51:58;101616.63;;;19.89;58.81
66945;BME280;53853;51.982;5.928;2022-07-29T08:54:29;101624.13;;;19.94;58.75
66945;BME280;53853;51.982;5.928;2022-07-29T08:57:00;101619.84;;;19.99;58.32
66945;BME280;53853;51.982;5.928;2022-07-29T08:59:31;101628.97;;;19.98;58.20
66945;BME280;53853;51.982;5.928;2022-07-29T09:02:04;101632.16;;;20.02;58.84
66945;BME280;53853;51.982;5.928;2022-07-29T09:04:37;101632.78;;;20.04;58.98
66945;BME280;53853;51.982;5.928;2022-07-29T09:07:08;101628.38;;;20.03;59.12
66945;BME280;53853;51.982;5.928;2022-07-29T09:09:39;101636.31;;;20.04;59.02
66945;BME280;53853;51.982;5.928;2022-07-29T09:12:09;101635.50;;;20.04;59.28
66945;BME280;53853;51.982;5.928;2022-07-29T09:14:41;101642.69;;;19.97;58.92
66945;BME280;53853;51.982;5.928;2022-07-29T09:17:10;101644.19;;;19.99;59.05
66945;BME280;53853;51.982;5.928;2022-07-29T09:19:44;101647.13;;;20.04;58.96
66945;BME280;53853;51.982;5.928;2022-07-29T09:22:29;101645.69;;;20.02;58.57
66945;BME280;53853;51.982;5.928;2022-07-29T09:25:00;101646.69;;;20.01;58.66
66945;BME280;53853;51.982;5.928;2022-07-29T09:27:30;101641.16;;;19.87;58.80
66945;BME280;53853;51.982;5.928;2022-07-29T09:30:02;101633.50;;;19.91;59.57
66945;BME280;53853;51.982;5.928;2022-07-29T09:32:33;101637.66;;;19.94;59.80
66945;BME280;53853;51.982;5.928;2022-07-29T09:35:26;101634.19;;;20.00;59.55
66945;BME280;53853;51.982;5.928;2022-07-29T09:37:56;101626.94;;;20.00;59.37
66945;BME280;53853;51.982;5.928;2022-07-29T09:40:27;101627.56;;;20.02;60.18
66945;BME280;53853;51.982;5.928;2022-07-29T09:42:57;101625.69;;;20.03;59.75
66945;BME280;53853;51.982;5.928;2022-07-29T09:45:29;101635.28;;;20.05;59.41
66945;BME280;53853;51.982;5.928;2022-07-29T09:48:00;101635.50;;;20.04;59.62
66945;BME280;53853;51.982;5.928;2022-07-29T09:50:46;101646.75;;;20.07;59.74
66945;BME280;53853;51.982;5.928;2022-07-29T09:53:30;101652.63;;;20.11;59.52
66945;BME280;53853;51.982;5.928;2022-07-29T09:56:01;101646.56;;;20.09;59.42
66945;BME280;53853;51.982;5.928;2022-07-29T09:58:32;101644.53;;;20.11;59.34
66945;BME280;53853;51.982;5.928;2022-07-29T10:01:02;101636.66;;;20.16;59.31
66945;BME280;53853;51.982;5.928;2022-07-29T10:03:32;101644.00;;;20.22;59.55
66945;BME280;53853;51.982;5.928;2022-07-29T10:06:21;101644.50;;;20.33;59.49
66945;BME280;53853;51.982;5.928;2022-07-29T10:08:51;101634.75;;;20.38;59.29
66945;BME280;53853;51.982;5.928;2022-07-29T10:11:21;101628.41;;;20.53;59.99
66945;BME280;53853;51.982;5.928;2022-07-29T10:13:52;101626.13;;;20.78;59.59
66945;BME280;53853;51.982;5.928;2022-07-29T10:16:22;101618.09;;;20.98;59.11
66945;BME280;53853;51.982;5.928;2022-07-29T10:18:54;101627.38;;;21.17;58.91
66945;BME280;53853;51.982;5.928;2022-07-29T10:21:27;101629.78;;;21.40;57.97
66945;BME280;53853;51.982;5.928;2022-07-29T10:23:59;101637.13;;;21.46;55.91
66945;BME280;53853;51.982;5.928;2022-07-29T10:26:31;101630.84;;;21.46;54.52
66945;BME280;53853;51.982;5.928;2022-07-29T10:29:02;101621.91;;;21.52;55.37
66945;BME280;53853;51.982;5.928;2022-07-29T10:31:39;101630.72;;;21.54;54.71
66945;BME280;53853;51.982;5.928;2022-07-29T10:34:17;101625.22;;;21.47;54.04
66945;BME280;53853;51.982;5.928;2022-07-29T10:36:56;101627.75;;;21.49;55.37
66945;BME280;53853;51.982;5.928;2022-07-29T10:39:41;101625.72;;;21.64;55.43
66945;BME280;53853;51.982;5.928;2022-07-29T10:42:19;101629.31;;;21.71;53.95
66945;BME280;53853;51.982;5.928;2022-07-29T10:44:52;101630.94;;;21.73;54.83
66945;BME280;53853;51.982;5.928;2022-07-29T10:47:23;101630.13;;;21.79;54.49
66945;BME280;53853;51.982;5.928;2022-07-29T10:50:01;101628.06;;;21.81;53.30
66945;BME280;53853;51.982;5.928;2022-07-29T10:52:55;101623.06;;;21.84;52.39
66945;BME280;53853;51.982;5.928;2022-07-29T10:55:32;101627.63;;;21.84;53.38
66945;BME280;53853;51.982;5.928;2022-07-29T10:58:17;101629.94;;;21.87;52.78
66945;BME280;53853;51.982;5.928;2022-07-29T11:00:48;101627.03;;;21.88;53.49
66945;BME280;53853;51.982;5.928;2022-07-29T11:03:43;101627.69;;;21.97;53.82
66945;BME280;53853;51.982;5.928;2022-07-29T11:06:14;101628.50;;;22.04;53.86
66945;BME280;53853;51.982;5.928;2022-07-29T11:09:16;101631.88;;;22.13;53.31
66945;BME280;53853;51.982;5.928;2022-07-29T11:11:46;101622.50;;;22.22;53.06
66945;BME280;53853;51.982;5.928;2022-07-29T11:14:17;101623.09;;;22.18;52.26
66945;BME280;53853;51.982;5.928;2022-07-29T11:17:01;101628.13;;;22.28;53.34
66945;BME280;53853;51.982;5.928;2022-07-29T11:19:35;101626.28;;;22.41;53.26
66945;BME280;53853;51.982;5.928;2022-07-29T11:22:08;101621.03;;;22.60;53.53
66945;BME280;53853;51.982;5.928;2022-07-29T11:24:41;101618.31;;;22.67;53.30
66945;BME280;53853;51.982;5.928;2022-07-29T11:27:14;101626.84;;;22.77;53.44
66945;BME280;53853;51.982;5.928;2022-07-29T11:29:51;101619.53;;;22.84;52.67
66945;BME280;53853;51.982;5.928;2022-07-29T11:32:23;101621.41;;;22.90;52.83
66945;BME280;53853;51.982;5.928;2022-07-29T11:35:12;101615.72;;;23.05;52.47
66945;BME280;53853;51.982;5.928;2022-07-29T11:37:44;101620.09;;;23.20;52.78
66945;BME280;53853;51.982;5.928;2022-07-29T11:40:18;101612.97;;;23.25;51.49
66945;BME280;53853;51.982;5.928;2022-07-29T11:42:52;101614.13;;;23.36;51.30
66945;BME280;53853;51.982;5.928;2022-07-29T11:45:45;101611.63;;;23.41;49.92
66945;BME280;53853;51.982;5.928;2022-07-29T11:48:17;101606.81;;;23.43;50.09
66945;BME280;53853;51.982;5.928;2022-07-29T11:50:47;101607.38;;;23.52;50.14
66945;BME280;53853;51.982;5.928;2022-07-29T11:53:17;101607.09;;;23.67;50.66
66945;BME280;53853;51.982;5.928;2022-07-29T11:55:55;101600.50;;;23.81;50.66
66945;BME280;53853;51.982;5.928;2022-07-29T11:58:26;101606.31;;;23.92;48.26
66945;BME280;53853;51.982;5.928;2022-07-29T12:00:57;101606.69;;;24.02;50.04
66945;BME280;53853;51.982;5.928;2022-07-29T12:03:29;101606.41;;;24.10;48.54
66945;BME280;53853;51.982;5.928;2022-07-29T12:05:58;101602.19;;;24.14;49.21
66945;BME280;53853;51.982;5.928;2022-07-29T12:08:28;101604.19;;;24.26;48.57
66945;BME280;53853;51.982;5.928;2022-07-29T12:11:01;101607.00;;;24.37;47.32
66945;BME280;53853;51.982;5.928;2022-07-29T12:13:38;101598.50;;;24.52;45.76
66945;BME280;53853;51.982;5.928;2022-07-29T12:16:08;101607.00;;;24.63;45.12
66945;BME280;53853;51.982;5.928;2022-07-29T12:18:38;101602.78;;;24.67;46.22
66945;BME280;53853;51.982;5.928;2022-07-29T12:21:08;101605.28;;;24.68;46.29
66945;BME280;53853;51.982;5.928;2022-07-29T12:23:38;101597.66;;;24.52;45.59
66945;BME280;53853;51.982;5.928;2022-07-29T12:26:11;101598.06;;;24.55;46.96
66945;BME280;53853;51.982;5.928;2022-07-29T12:28:40;101594.91;;;24.58;45.57
66945;BME280;53853;51.982;5.928;2022-07-29T12:31:14;101593.38;;;24.63;46.17
66945;BME280;53853;51.982;5.928;2022-07-29T12:33:52;101591.75;;;24.62;46.24
66945;BME280;53853;51.982;5.928;2022-07-29T12:36:23;101590.66;;;24.63;46.52
66945;BME280;53853;51.982;5.928;2022-07-29T12:38:53;101592.94;;;24.66;46.52
66945;BME280;53853;51.982;5.928;2022-07-29T12:41:28;101590.81;;;24.68;45.10
66945;BME280;53853;51.982;5.928;2022-07-29T12:43:58;101596.72;;;24.65;44.70
66945;BME280;53853;51.982;5.928;2022-07-29T12:46:28;101597.41;;;24.60;44.86
66945;BME280;53853;51.982;5.928;2022-07-29T12:48:58;101604.66;;;24.66;45.26
66945;BME280;53853;51.982;5.928;2022-07-29T12:51:32;101591.22;;;24.71;43.75
66945;BME280;53853;51.982;5.928;2022-07-29T12:54:05;101592.50;;;24.69;44.95
66945;BME280;53853;51.982;5.928;2022-07-29T12:56:40;101586.59;;;24.72;44.52
66945;BME280;53853;51.982;5.928;2022-07-29T12:59:15;101583.19;;;24.76;44.01
66945;BME280;53853;51.982;5.928;2022-07-29T13:01:45;101587.38;;;24.79;44.76
66945;BME280;53853;51.982;5.928;2022-07-29T13:04:25;101585.84;;;24.83;44.91
66945;BME280;53853;51.982;5.928;2022-07-29T13:06:59;101577.56;;;24.90;44.49
66945;BME280;53853;51.982;5.928;2022-07-29T13:09:38;101580.25;;;24.97;44.25
66945;BME280;53853;51.982;5.928;2022-07-29T13:12:14;101583.47;;;25.05;44.70
66945;BME280;53853;51.982;5.928;2022-07-29T13:14:46;101581.88;;;25.16;42.17
66945;BME280;53853;51.982;5.928;2022-07-29T13:17:18;101580.34;;;25.20;43.58